Daihatsumaru — JD2764 — position and weather

sailwx.info

Track history (hours):
 
Tides and Currents Weather Stations Pressure Air Temp Water Temp Dewpoint Dewpoint Depression Visibility Wind Speed Wind Dir Waves Ship Positions

Daihatsumaru

Last reported at 2017-Jul-22 06:20 UTC. Time now 2017-Jul-24 10:47 UTC.
Position N 34°36' E 134°54'.

Length 106 m; draft 4.5 m.

Type: Cargo ship. MMSI: 431000701.

Date/timePositionNaut miles runAvg speedWind from/ knotsBaromVisibWave heightAir tempDewpointWater temp
2017-Jul-22 06:20N 34°36' E 134°54'614.0
2017-Jul-22 05:52N 34°37' E 135°01'512.7
2017-Jul-22 05:30N 34°36' E 135°07'714.7
2017-Jul-22 05:00N 34°37' E 135°15'714.4
2017-Jul-22 04:30N 34°41' E 135°23'1 1.2
2017-Jul-22 04:00N 34°41' E 135°23'0 0.0
2017-Jul-22 02:49N 34°41' E 135°23'0 0.2
2017-Jul-22 02:30N 34°41' E 135°23'0 0.0
2017-Jul-22 01:12N 34°41' E 135°23'0 0.0
2017-Jul-22 00:43N 34°41' E 135°23'0 0.0
2017-Jul-22 00:26N 34°41' E 135°23'0 0.1
2017-Jul-22 00:00N 34°41' E 135°23'0 0.0
2017-Jul-21 23:00N 34°41' E 135°23'3 5.8
2017-Jul-21 22:30N 34°40' E 135°20'0 0.8
2017-Jul-21 22:00N 34°39' E 135°20'0 0.0
2017-Jul-21 21:30N 34°39' E 135°20'0 0.0
2017-Jul-21 21:00N 34°39' E 135°20'0 0.0
2017-Jul-21 20:30N 34°39' E 135°20'0 0.0
2017-Jul-21 20:00N 34°39' E 135°20'0 0.0
2017-Jul-21 19:30N 34°39' E 135°20'0 0.0
2017-Jul-21 19:00N 34°39' E 135°20'0 0.0
2017-Jul-21 18:30N 34°39' E 135°20'3 5.2
2017-Jul-21 18:00N 34°38' E 135°18'714.9
2017-Jul-21 17:30N 34°35' E 135°09'815.9
2017-Jul-21 16:59N 34°37' E 134°60'3 0.1
2017-Jul-20 05:17N 34°37' E 134°56'514.7
2017-Jul-20 04:58N 34°37' E 135°01'714.5
2017-Jul-20 04:30N 34°36' E 135°09'714.9
2017-Jul-20 04:00N 34°38' E 135°18'510.6
2017-Jul-20 03:29N 34°41' E 135°23'0 0.0
2017-Jul-20 03:00N 34°41' E 135°23'0 0.0
2017-Jul-20 02:30N 34°41' E 135°23'0 0.0
2017-Jul-20 02:00N 34°41' E 135°23'0 0.0
2017-Jul-20 01:30N 34°41' E 135°23'0 0.0
2017-Jul-20 01:00N 34°41' E 135°23'0 0.0
2017-Jul-20 00:30N 34°41' E 135°23'0 0.0
2017-Jul-20 00:00N 34°41' E 135°23'0 0.0
2017-Jul-19 23:30N 34°41' E 135°23'0 0.0
2017-Jul-19 23:00N 34°41' E 135°23'0 0.0
2017-Jul-19 22:30N 34°41' E 135°23'2 4.8
2017-Jul-19 22:00N 34°40' E 135°21'0 0.3
2017-Jul-19 21:30N 34°40' E 135°21'0 0.0
2017-Jul-19 21:00N 34°40' E 135°21'0 0.0
2017-Jul-19 20:30N 34°40' E 135°21'0 0.0
2017-Jul-19 20:00N 34°40' E 135°21'0 0.0
2017-Jul-19 19:30N 34°40' E 135°21'0 0.0
2017-Jul-19 19:00N 34°40' E 135°21'0 0.0
2017-Jul-19 18:30N 34°40' E 135°21'4 7.7
2017-Jul-19 18:00N 34°37' E 135°17'714.6
2017-Jul-19 17:30N 34°34' E 135°09'815.1
2017-Jul-19 17:00N 34°37' E 135°01'5 0.1
2017-Jul-18 05:13N 34°37' E 134°55'516.1
2017-Jul-18 04:55N 34°37' E 135°01'615.2
2017-Jul-18 04:30N 34°36' E 135°08'714.4
2017-Jul-18 04:00N 34°38' E 135°17'612.2
2017-Jul-18 03:30N 34°41' E 135°23'0 0.1
2017-Jul-18 03:00N 34°41' E 135°23'0 0.0
2017-Jul-18 01:58N 34°41' E 135°23'0 0.0
2017-Jul-18 00:51N 34°41' E 135°23'0 0.1
2017-Jul-18 00:25N 34°41' E 135°23'0 0.1
2017-Jul-17 23:59N 34°41' E 135°23'0 0.1
2017-Jul-17 23:24N 34°41' E 135°23'0 0.0
2017-Jul-17 23:00N 34°41' E 135°23'3 6.1
2017-Jul-17 22:30N 34°40' E 135°20'0 0.2
2017-Jul-17 22:00N 34°40' E 135°20'0 0.1
2017-Jul-17 21:30N 34°40' E 135°20'0 0.1
2017-Jul-17 21:00N 34°40' E 135°20'0 0.0
2017-Jul-17 20:30N 34°40' E 135°20'0 0.0
2017-Jul-17 20:00N 34°40' E 135°20'0 0.0
2017-Jul-17 19:30N 34°40' E 135°20'1 1.9
2017-Jul-17 19:00N 34°39' E 135°19'714.8
2017-Jul-17 18:30N 34°35' E 135°12'714.7
2017-Jul-17 18:00N 34°36' E 135°03'612.3
2017-Jul-17 17:30N 34°35' E 134°55'  
2017-Jul-15 05:33N 34°37' E 134°58'314.5
2017-Jul-15 05:22N 34°37' E 135°01'514.9
2017-Jul-15 05:00N 34°36' E 135°07'815.1
2017-Jul-15 04:30N 34°38' E 135°16'713.5
2017-Jul-15 04:00N 34°41' E 135°23'0 0.1
2017-Jul-15 03:30N 34°41' E 135°23'0 0.0
2017-Jul-15 03:00N 34°41' E 135°23'0 0.0
2017-Jul-15 02:30N 34°41' E 135°23'0 0.0
2017-Jul-15 02:00N 34°41' E 135°23'0 0.0
2017-Jul-15 01:30N 34°41' E 135°23'0 0.0
2017-Jul-15 00:50N 34°41' E 135°23'0 0.0
2017-Jul-15 00:29N 34°41' E 135°23'0 0.0
2017-Jul-15 00:00N 34°41' E 135°23'0 0.0
2017-Jul-14 23:21N 34°41' E 135°23'0 0.0
2017-Jul-14 23:00N 34°41' E 135°23'2 4.2
2017-Jul-14 22:30N 34°40' E 135°21'1 1.9
2017-Jul-14 22:00N 34°40' E 135°20'0 0.0
2017-Jul-14 21:30N 34°40' E 135°20'0 0.0
2017-Jul-14 21:00N 34°40' E 135°20'0 0.0
2017-Jul-14 20:30N 34°40' E 135°20'0 0.0
2017-Jul-14 20:00N 34°40' E 135°20'0 0.9
2017-Jul-14 19:30N 34°39' E 135°20'713.8
2017-Jul-14 19:00N 34°35' E 135°13'815.1
2017-Jul-14 18:30N 34°35' E 135°04'714.5
2017-Jul-14 18:00N 34°36' E 134°55'1 0.0
2017-Jul-13 05:23N 34°36' E 134°54'614.0
2017-Jul-13 04:58N 34°37' E 135°01'613.7
2017-Jul-13 04:30N 34°36' E 135°09'815.1
2017-Jul-13 04:00N 34°38' E 135°18'611.9
2017-Jul-13 03:30N 34°41' E 135°23'0 0.0
2017-Jul-13 03:00N 34°41' E 135°23'0 0.0
2017-Jul-13 02:30N 34°41' E 135°23'0 0.0
2017-Jul-13 02:00N 34°41' E 135°23'0 0.0
2017-Jul-13 01:30N 34°41' E 135°23'0 0.0
2017-Jul-13 00:59N 34°41' E 135°23'0 0.0
2017-Jul-13 00:30N 34°41' E 135°23'0 0.0
2017-Jul-13 00:00N 34°41' E 135°23'0 0.0
2017-Jul-12 23:30N 34°41' E 135°23'0 0.0
2017-Jul-12 23:00N 34°41' E 135°23'0 0.0
2017-Jul-12 22:30N 34°41' E 135°23'3 5.5
2017-Jul-12 22:01N 34°40' E 135°21'0 0.1
2017-Jul-12 21:30N 34°40' E 135°21'0 0.0
2017-Jul-12 21:00N 34°40' E 135°21'0 0.0
2017-Jul-12 20:30N 34°40' E 135°21'0 0.0
2017-Jul-12 20:00N 34°40' E 135°21'0 0.3
2017-Jul-12 19:30N 34°40' E 135°20'5 9.7
2017-Jul-12 19:00N 34°36' E 135°16'714.8
2017-Jul-12 18:30N 34°35' E 135°07'815.4
2017-Jul-12 18:00N 34°36' E 134°58'  
Track history (hours):
 
Tides and Currents Weather Stations Pressure Air Temp Water Temp Dewpoint Dewpoint Depression Visibility Wind Speed Wind Dir Waves Ship Positions

Daihatsumaru

Last reported at 2017-Jul-22 06:20 UTC. Time now 2017-Jul-24 10:47 UTC.
Position N 34°36' E 134°54'.

Length 106 m; draft 4.5 m.

Type: Cargo ship. MMSI: 431000701.

Date/timePositionNaut miles runAvg speedWind from/ knotsBaromVisibWave heightAir tempDewpointWater temp
2017-Jul-22 06:20N 34°36' E 134°54'614.0
2017-Jul-22 05:52N 34°37' E 135°01'512.7
2017-Jul-22 05:30N 34°36' E 135°07'714.7
2017-Jul-22 05:00N 34°37' E 135°15'714.4
2017-Jul-22 04:30N 34°41' E 135°23'1 1.2
2017-Jul-22 04:00N 34°41' E 135°23'0 0.0
2017-Jul-22 02:49N 34°41' E 135°23'0 0.2
2017-Jul-22 02:30N 34°41' E 135°23'0 0.0
2017-Jul-22 01:12N 34°41' E 135°23'0 0.0
2017-Jul-22 00:43N 34°41' E 135°23'0 0.0
2017-Jul-22 00:26N 34°41' E 135°23'0 0.1
2017-Jul-22 00:00N 34°41' E 135°23'0 0.0
2017-Jul-21 23:00N 34°41' E 135°23'3 5.8
2017-Jul-21 22:30N 34°40' E 135°20'0 0.8
2017-Jul-21 22:00N 34°39' E 135°20'0 0.0
2017-Jul-21 21:30N 34°39' E 135°20'0 0.0
2017-Jul-21 21:00N 34°39' E 135°20'0 0.0
2017-Jul-21 20:30N 34°39' E 135°20'0 0.0
2017-Jul-21 20:00N 34°39' E 135°20'0 0.0
2017-Jul-21 19:30N 34°39' E 135°20'0 0.0
2017-Jul-21 19:00N 34°39' E 135°20'0 0.0
2017-Jul-21 18:30N 34°39' E 135°20'3 5.2
2017-Jul-21 18:00N 34°38' E 135°18'714.9
2017-Jul-21 17:30N 34°35' E 135°09'815.9
2017-Jul-21 16:59N 34°37' E 134°60'3 0.1
2017-Jul-20 05:17N 34°37' E 134°56'514.7
2017-Jul-20 04:58N 34°37' E 135°01'714.5
2017-Jul-20 04:30N 34°36' E 135°09'714.9
2017-Jul-20 04:00N 34°38' E 135°18'510.6
2017-Jul-20 03:29N 34°41' E 135°23'0 0.0
2017-Jul-20 03:00N 34°41' E 135°23'0 0.0
2017-Jul-20 02:30N 34°41' E 135°23'0 0.0
2017-Jul-20 02:00N 34°41' E 135°23'0 0.0
2017-Jul-20 01:30N 34°41' E 135°23'0 0.0
2017-Jul-20 01:00N 34°41' E 135°23'0 0.0
2017-Jul-20 00:30N 34°41' E 135°23'0 0.0
2017-Jul-20 00:00N 34°41' E 135°23'0 0.0
2017-Jul-19 23:30N 34°41' E 135°23'0 0.0
2017-Jul-19 23:00N 34°41' E 135°23'0 0.0
2017-Jul-19 22:30N 34°41' E 135°23'2 4.8
2017-Jul-19 22:00N 34°40' E 135°21'0 0.3
2017-Jul-19 21:30N 34°40' E 135°21'0 0.0
2017-Jul-19 21:00N 34°40' E 135°21'0 0.0
2017-Jul-19 20:30N 34°40' E 135°21'0 0.0
2017-Jul-19 20:00N 34°40' E 135°21'0 0.0
2017-Jul-19 19:30N 34°40' E 135°21'0 0.0
2017-Jul-19 19:00N 34°40' E 135°21'0 0.0
2017-Jul-19 18:30N 34°40' E 135°21'4 7.7
2017-Jul-19 18:00N 34°37' E 135°17'714.6
2017-Jul-19 17:30N 34°34' E 135°09'815.1
2017-Jul-19 17:00N 34°37' E 135°01'5 0.1
2017-Jul-18 05:13N 34°37' E 134°55'516.1
2017-Jul-18 04:55N 34°37' E 135°01'615.2
2017-Jul-18 04:30N 34°36' E 135°08'714.4
2017-Jul-18 04:00N 34°38' E 135°17'612.2
2017-Jul-18 03:30N 34°41' E 135°23'0 0.1
2017-Jul-18 03:00N 34°41' E 135°23'0 0.0
2017-Jul-18 01:58N 34°41' E 135°23'0 0.0
2017-Jul-18 00:51N 34°41' E 135°23'0 0.1
2017-Jul-18 00:25N 34°41' E 135°23'0 0.1
2017-Jul-17 23:59N 34°41' E 135°23'0 0.1
2017-Jul-17 23:24N 34°41' E 135°23'0 0.0
2017-Jul-17 23:00N 34°41' E 135°23'3 6.1
2017-Jul-17 22:30N 34°40' E 135°20'0 0.2
2017-Jul-17 22:00N 34°40' E 135°20'0 0.1
2017-Jul-17 21:30N 34°40' E 135°20'0 0.1
2017-Jul-17 21:00N 34°40' E 135°20'0 0.0
2017-Jul-17 20:30N 34°40' E 135°20'0 0.0
2017-Jul-17 20:00N 34°40' E 135°20'0 0.0
2017-Jul-17 19:30N 34°40' E 135°20'1 1.9
2017-Jul-17 19:00N 34°39' E 135°19'714.8
2017-Jul-17 18:30N 34°35' E 135°12'714.7
2017-Jul-17 18:00N 34°36' E 135°03'612.3
2017-Jul-17 17:30N 34°35' E 134°55'  
2017-Jul-15 05:33N 34°37' E 134°58'314.5
2017-Jul-15 05:22N 34°37' E 135°01'514.9
2017-Jul-15 05:00N 34°36' E 135°07'815.1
2017-Jul-15 04:30N 34°38' E 135°16'713.5
2017-Jul-15 04:00N 34°41' E 135°23'0 0.1
2017-Jul-15 03:30N 34°41' E 135°23'0 0.0
2017-Jul-15 03:00N 34°41' E 135°23'0 0.0
2017-Jul-15 02:30N 34°41' E 135°23'0 0.0
2017-Jul-15 02:00N 34°41' E 135°23'0 0.0
2017-Jul-15 01:30N 34°41' E 135°23'0 0.0
2017-Jul-15 00:50N 34°41' E 135°23'0 0.0
2017-Jul-15 00:29N 34°41' E 135°23'0 0.0
2017-Jul-15 00:00N 34°41' E 135°23'0 0.0
2017-Jul-14 23:21N 34°41' E 135°23'0 0.0
2017-Jul-14 23:00N 34°41' E 135°23'2 4.2
2017-Jul-14 22:30N 34°40' E 135°21'1 1.9
2017-Jul-14 22:00N 34°40' E 135°20'0 0.0
2017-Jul-14 21:30N 34°40' E 135°20'0 0.0
2017-Jul-14 21:00N 34°40' E 135°20'0 0.0
2017-Jul-14 20:30N 34°40' E 135°20'0 0.0
2017-Jul-14 20:00N 34°40' E 135°20'0 0.9
2017-Jul-14 19:30N 34°39' E 135°20'713.8
2017-Jul-14 19:00N 34°35' E 135°13'815.1
2017-Jul-14 18:30N 34°35' E 135°04'714.5
2017-Jul-14 18:00N 34°36' E 134°55'1 0.0
2017-Jul-13 05:23N 34°36' E 134°54'614.0
2017-Jul-13 04:58N 34°37' E 135°01'613.7
2017-Jul-13 04:30N 34°36' E 135°09'815.1
2017-Jul-13 04:00N 34°38' E 135°18'611.9
2017-Jul-13 03:30N 34°41' E 135°23'0 0.0
2017-Jul-13 03:00N 34°41' E 135°23'0 0.0
2017-Jul-13 02:30N 34°41' E 135°23'0 0.0
2017-Jul-13 02:00N 34°41' E 135°23'0 0.0
2017-Jul-13 01:30N 34°41' E 135°23'0 0.0
2017-Jul-13 00:59N 34°41' E 135°23'0 0.0
2017-Jul-13 00:30N 34°41' E 135°23'0 0.0
2017-Jul-13 00:00N 34°41' E 135°23'0 0.0
2017-Jul-12 23:30N 34°41' E 135°23'0 0.0
2017-Jul-12 23:00N 34°41' E 135°23'0 0.0
2017-Jul-12 22:30N 34°41' E 135°23'3 5.5
2017-Jul-12 22:01N 34°40' E 135°21'0 0.1
2017-Jul-12 21:30N 34°40' E 135°21'0 0.0
2017-Jul-12 21:00N 34°40' E 135°21'0 0.0
2017-Jul-12 20:30N 34°40' E 135°21'0 0.0
2017-Jul-12 20:00N 34°40' E 135°21'0 0.3
2017-Jul-12 19:30N 34°40' E 135°20'5 9.7
2017-Jul-12 19:00N 34°36' E 135°16'714.8
2017-Jul-12 18:30N 34°35' E 135°07'815.4
2017-Jul-12 18:00N 34°36' E 134°58'  

Dump ship's entire track history